Time;durP1;ratioP1;P1;durP2;ratioP2;P2;SDS_P1;SDS_P2;PMS_P1;PMS_P2;Temp;Humidity;BMP_temperature;BMP_pressure;BME280_temperature;BME280_humidity;BME280_pressure;Samples;Min_cycle;Max_cycle;Signal;HPM_P1;HPM_P2
2021/01/28 00:00:51;;;;;;;0.43;0.43;;;4.70;99.90;;;;;;4976730;28;20647;-67
2021/01/28 00:03:17;;;;;;;0.60;0.60;;;4.80;99.90;;;;;;4976632;28;20608;-67
2021/01/28 00:05:45;;;;;;;0.40;0.40;;;4.70;99.50;;;;;;4976304;28;20185;-67
2021/01/28 00:08:13;;;;;;;0.40;0.40;;;4.80;99.50;;;;;;4976532;28;20216;-67
2021/01/28 00:10:39;;;;;;;0.40;0.40;;;4.80;99.50;;;;;;4976411;28;20556;-67
2021/01/28 00:13:05;;;;;;;0.40;0.40;;;4.60;99.80;;;;;;4976187;28;20205;-67
2021/01/28 00:15:33;;;;;;;0.50;0.50;;;4.60;99.90;;;;;;4976073;28;20470;-67
2021/01/28 00:18:00;;;;;;;0.70;0.70;;;4.70;99.70;;;;;;4974899;28;20204;-67
2021/01/28 00:20:32;;;;;;;0.50;0.50;;;4.90;99.50;;;;;;4974974;28;20247;-67
2021/01/28 00:22:58;;;;;;;1.88;1.50;;;4.90;99.50;;;;;;4976136;28;20244;-67
2021/01/28 00:25:25;;;;;;;0.50;0.50;;;4.90;99.30;;;;;;4975824;28;20173;-67
2021/01/28 00:27:52;;;;;;;2.15;0.75;;;5.00;99.20;;;;;;4976491;28;20224;-67
2021/01/28 00:30:22;;;;;;;0.73;0.60;;;5.00;99.00;;;;;;4975882;28;20741;-67
2021/01/28 00:32:49;;;;;;;0.50;0.50;;;5.00;99.00;;;;;;4974728;28;20216;-67
2021/01/28 00:35:22;;;;;;;0.60;0.60;;;4.80;99.10;;;;;;4975759;28;20651;-67
2021/01/28 00:37:47;;;;;;;0.45;0.45;;;4.70;99.60;;;;;;4975984;28;20197;-67
2021/01/28 00:40:13;;;;;;;0.63;0.40;;;4.80;99.60;;;;;;4975677;28;20173;-67
2021/01/28 00:42:39;;;;;;;0.43;0.43;;;4.70;99.70;;;;;;4975588;28;20258;-67
2021/01/28 00:45:06;;;;;;;0.40;0.40;;;4.80;99.90;;;;;;4975664;28;20400;-67
2021/01/28 00:47:31;;;;;;;0.40;0.40;;;4.90;99.60;;;;;;4975654;28;20183;-67
2021/01/28 00:49:57;;;;;;;0.40;0.40;;;4.90;99.20;;;;;;4975795;28;20315;-67
2021/01/28 00:52:22;;;;;;;0.50;0.50;;;4.90;99.20;;;;;;4975483;28;20208;-67
2021/01/28 00:54:48;;;;;;;0.63;0.60;;;4.70;99.70;;;;;;4975520;28;20165;-67
2021/01/28 00:57:14;;;;;;;1.63;1.00;;;4.60;99.90;;;;;;4975464;28;20172;-67
2021/01/28 00:59:39;;;;;;;0.60;0.60;;;4.70;99.90;;;;;;4974923;28;20169;-67
2021/01/28 01:02:05;;;;;;;0.60;0.60;;;4.60;99.90;;;;;;4975343;28;20624;-67
2021/01/28 01:04:30;;;;;;;1.27;1.27;;;4.60;99.90;;;;;;4975284;28;20180;-67
2021/01/28 01:06:57;;;;;;;0.40;0.40;;;4.70;99.90;;;;;;4975334;28;20251;-67
2021/01/28 01:09:27;;;;;;;1.50;0.77;;;4.70;99.80;;;;;;4975429;28;20185;-67
2021/01/28 01:11:54;;;;;;;0.50;0.40;;;4.60;99.90;;;;;;4975190;28;20218;-67
2021/01/28 01:14:20;;;;;;;0.60;0.60;;;4.70;99.90;;;;;;4975206;28;20169;-67
2021/01/28 01:16:46;;;;;;;0.50;0.50;;;4.70;99.90;;;;;;4975035;28;20183;-67
2021/01/28 01:19:13;;;;;;;0.70;0.60;;;4.80;99.90;;;;;;4975102;28;20212;-67
2021/01/28 01:21:38;;;;;;;0.85;0.50;;;4.80;99.90;;;;;;4975136;28;20654;-67
2021/01/28 01:24:05;;;;;;;0.50;0.47;;;4.90;99.50;;;;;;4974878;28;20442;-67
2021/01/28 01:26:30;;;;;;;0.40;0.30;;;4.90;99.50;;;;;;4975035;28;20243;-67
2021/01/28 01:28:56;;;;;;;0.40;0.40;;;5.00;99.40;;;;;;4974934;28;20184;-67
2021/01/28 01:31:21;;;;;;;0.40;0.40;;;5.10;99.20;;;;;;4974912;28;20177;-67
2021/01/28 01:33:47;;;;;;;0.80;0.50;;;5.10;99.00;;;;;;4974872;28;20188;-67
2021/01/28 01:36:13;;;;;;;0.70;0.70;;;5.10;99.00;;;;;;4974815;28;20533;-67
2021/01/28 01:38:39;;;;;;;0.50;0.50;;;5.10;98.80;;;;;;4974876;28;20165;-67
2021/01/28 01:41:04;;;;;;;0.50;0.50;;;5.00;99.00;;;;;;4975016;28;20248;-67
2021/01/28 01:43:30;;;;;;;0.70;0.70;;;5.00;99.20;;;;;;4974740;28;20675;-67
2021/01/28 01:46:00;;;;;;;0.50;0.50;;;5.00;99.20;;;;;;4974744;28;20180;-67
2021/01/28 01:48:35;;;;;;;0.40;0.40;;;5.10;99.10;;;;;;4974701;28;20411;-67
2021/01/28 01:51:14;;;;;;;0.40;0.40;;;5.10;99.00;;;;;;4974974;28;20268;-67
2021/01/28 01:53:56;;;;;;;0.35;0.35;;;5.20;98.90;;;;;;4973475;28;20263;-67
2021/01/28 01:56:26;;;;;;;0.35;0.35;;;5.20;98.90;;;;;;4974493;28;20261;-67
2021/01/28 01:59:07;;;;;;;0.30;0.30;;;5.20;98.80;;;;;;4974656;28;20288;-67
2021/01/28 02:01:38;;;;;;;0.50;0.30;;;5.20;98.60;;;;;;4974861;28;20626;-67
2021/01/28 02:04:06;;;;;;;0.38;0.38;;;5.20;98.60;;;;;;4974602;28;20193;-67
2021/01/28 02:06:58;;;;;;;0.40;0.40;;;5.10;98.70;;;;;;4974481;28;20651;-67
2021/01/28 02:09:24;;;;;;;0.30;0.30;;;5.20;98.90;;;;;;4974756;28;20184;-67
2021/01/28 02:11:50;;;;;;;0.40;0.40;;;5.10;98.80;;;;;;4976781;28;20311;-67
2021/01/28 02:14:17;;;;;;;0.43;0.43;;;5.20;98.90;;;;;;4977142;28;20196;-67
2021/01/28 02:16:50;;;;;;;2.22;0.85;;;5.20;98.90;;;;;;4978273;28;20177;-67
2021/01/28 02:19:26;;;;;;;0.98;0.70;;;5.20;98.80;;;;;;4978458;28;20179;-67
2021/01/28 02:21:52;;;;;;;0.80;0.80;;;5.20;98.70;;;;;;4978401;28;20203;-67
2021/01/28 02:24:38;;;;;;;0.70;0.70;;;5.20;98.80;;;;;;4978314;28;20213;-67
2021/01/28 02:27:08;;;;;;;0.55;0.55;;;5.20;98.70;;;;;;4978004;28;20771;-68
2021/01/28 02:29:35;;;;;;;3.83;1.30;;;5.20;98.70;;;;;;4978624;28;20173;-67
2021/01/28 02:32:00;;;;;;;1.58;1.38;;;5.20;98.80;;;;;;4978093;28;20292;-67
2021/01/28 02:34:26;;;;;;;1.97;0.67;;;5.20;98.80;;;;;;4976866;28;20263;-67
2021/01/28 02:36:53;;;;;;;1.00;1.00;;;5.20;98.80;;;;;;4977985;28;21133;-67
2021/01/28 02:39:26;;;;;;;0.88;0.77;;;5.10;98.80;;;;;;4978072;28;20587;-67
2021/01/28 02:42:05;;;;;;;0.40;0.40;;;5.20;98.80;;;;;;4978124;28;20668;-67
2021/01/28 02:44:30;;;;;;;0.50;0.40;;;5.10;98.60;;;;;;4978293;28;20165;-67
2021/01/28 02:46:56;;;;;;;0.40;0.40;;;5.10;98.80;;;;;;4977830;28;20177;-67
2021/01/28 02:49:22;;;;;;;0.60;0.60;;;5.10;98.90;;;;;;4978015;28;20200;-67
2021/01/28 02:51:48;;;;;;;0.70;0.70;;;5.10;98.90;;;;;;4977961;28;20196;-67
2021/01/28 02:54:14;;;;;;;1.15;1.15;;;5.00;98.90;;;;;;4977501;28;20208;-67
2021/01/28 02:56:39;;;;;;;0.60;0.60;;;5.10;98.90;;;;;;4977724;28;20181;-67
2021/01/28 02:59:06;;;;;;;0.80;0.80;;;5.10;98.90;;;;;;4977920;28;20188;-67
2021/01/28 03:01:33;;;;;;;0.75;0.75;;;5.20;99.00;;;;;;4977876;28;20172;-67
2021/01/28 03:03:59;;;;;;;1.75;1.60;;;5.20;99.10;;;;;;4977625;28;20212;-67
2021/01/28 03:06:25;;;;;;;0.67;0.67;;;5.10;98.90;;;;;;4977373;28;20173;-67
2021/01/28 03:08:50;;;;;;;0.73;0.73;;;5.20;98.90;;;;;;4977466;28;20643;-67
2021/01/28 03:11:17;;;;;;;2.23;1.93;;;5.10;98.90;;;;;;4977300;28;20195;-67
2021/01/28 03:13:43;;;;;;;1.60;0.90;;;5.20;99.00;;;;;;4977520;28;20193;-67
2021/01/28 03:16:09;;;;;;;0.83;0.83;;;5.20;99.20;;;;;;4977291;28;20181;-67
2021/01/28 03:18:34;;;;;;;1.00;0.87;;;5.20;98.90;;;;;;4977591;28;20176;-67
2021/01/28 03:21:00;;;;;;;1.60;1.50;;;5.20;98.90;;;;;;4977195;28;20165;-67
2021/01/28 03:23:25;;;;;;;1.83;1.73;;;5.20;99.00;;;;;;4976573;28;20196;-67
2021/01/28 03:25:51;;;;;;;1.57;1.47;;;5.20;99.00;;;;;;4977092;28;20263;-67
2021/01/28 03:28:18;;;;;;;1.53;1.40;;;5.20;98.90;;;;;;4977121;28;20179;-67
2021/01/28 03:30:46;;;;;;;1.30;1.05;;;5.20;98.80;;;;;;4977208;28;20603;-67
2021/01/28 03:33:15;;;;;;;1.15;1.15;;;5.20;98.60;;;;;;4977005;28;20205;-67
2021/01/28 03:35:41;;;;;;;0.50;0.50;;;5.10;98.70;;;;;;4976816;28;20200;-67
2021/01/28 03:38:09;;;;;;;0.65;0.65;;;5.10;99.10;;;;;;4976977;28;20173;-67
2021/01/28 03:40:35;;;;;;;0.40;0.40;;;5.10;99.20;;;;;;4976953;28;20255;-67
2021/01/28 03:43:00;;;;;;;0.53;0.40;;;5.20;98.90;;;;;;4976933;28;20722;-67
2021/01/28 03:45:27;;;;;;;0.40;0.40;;;5.20;98.80;;;;;;4975443;28;20264;-67
2021/01/28 03:47:54;;;;;;;0.40;0.40;;;5.20;98.70;;;;;;4975740;28;20926;-67
2021/01/28 03:50:25;;;;;;;0.30;0.30;;;5.20;98.60;;;;;;4975639;28;20188;-67
2021/01/28 03:52:50;;;;;;;0.32;0.32;;;5.20;98.70;;;;;;4976614;28;20577;-67
2021/01/28 03:55:16;;;;;;;1.00;0.73;;;5.30;98.80;;;;;;4976503;28;20165;-67
2021/01/28 03:57:46;;;;;;;0.57;0.57;;;5.30;98.80;;;;;;4976684;28;20177;-67
2021/01/28 04:00:13;;;;;;;0.40;0.40;;;5.30;98.80;;;;;;4976806;28;20639;-67
2021/01/28 04:02:38;;;;;;;0.30;0.30;;;5.30;98.80;;;;;;4976356;28;20196;-67
2021/01/28 04:05:05;;;;;;;0.40;0.40;;;5.30;98.80;;;;;;4976274;28;20639;-67
2021/01/28 04:07:30;;;;;;;0.38;0.38;;;5.30;98.60;;;;;;4976464;28;20177;-67
2021/01/28 04:09:56;;;;;;;0.37;0.37;;;5.20;98.40;;;;;;4976321;28;20252;-67
2021/01/28 04:12:22;;;;;;;0.73;0.50;;;5.20;98.50;;;;;;4976199;28;20208;-67
2021/01/28 04:14:47;;;;;;;1.60;0.60;;;5.20;98.80;;;;;;4976168;28;20198;-67
2021/01/28 04:17:13;;;;;;;0.63;0.63;;;5.20;98.80;;;;;;4976494;28;20183;-67
2021/01/28 04:19:39;;;;;;;0.60;0.50;;;5.20;98.90;;;;;;4976195;28;20503;-67
2021/01/28 04:22:04;;;;;;;0.40;0.40;;;5.10;99.00;;;;;;4976056;28;20808;-67
2021/01/28 04:24:30;;;;;;;0.50;0.40;;;5.10;99.10;;;;;;4976128;28;20180;-67
2021/01/28 04:26:56;;;;;;;0.40;0.40;;;5.20;99.10;;;;;;4975977;28;20173;-67
2021/01/28 04:29:21;;;;;;;1.23;0.63;;;5.20;99.10;;;;;;4976151;28;20176;-67
2021/01/28 04:31:47;;;;;;;0.30;0.30;;;5.20;99.00;;;;;;4976133;28;20236;-67
2021/01/28 04:34:13;;;;;;;0.40;0.40;;;5.20;99.00;;;;;;4975165;28;20204;-67
2021/01/28 04:36:38;;;;;;;0.40;0.40;;;5.20;99.00;;;;;;4975563;28;20166;-67
2021/01/28 04:39:05;;;;;;;1.23;0.40;;;5.20;99.00;;;;;;4975819;28;20196;-67
2021/01/28 04:41:32;;;;;;;0.40;0.40;;;5.20;98.90;;;;;;4975919;28;20554;-67
2021/01/28 04:43:59;;;;;;;0.40;0.40;;;5.20;99.00;;;;;;4975677;28;20192;-67
2021/01/28 04:46:32;;;;;;;0.80;0.55;;;5.20;99.10;;;;;;4975482;28;20588;-67
2021/01/28 04:48:59;;;;;;;0.75;0.70;;;5.20;99.10;;;;;;4975686;28;20256;-67
2021/01/28 04:51:27;;;;;;;0.63;0.63;;;5.20;99.20;;;;;;4975788;28;20522;-67
2021/01/28 04:53:58;;;;;;;0.30;0.30;;;5.20;99.20;;;;;;4975586;28;20207;-67
2021/01/28 04:56:27;;;;;;;0.30;0.30;;;5.20;99.30;;;;;;4975336;28;20196;-67
2021/01/28 04:59:13;;;;;;;0.57;0.52;;;5.20;99.10;;;;;;4975673;28;20325;-67
2021/01/28 05:01:39;;;;;;;0.40;0.40;;;5.20;99.10;;;;;;4975498;28;20180;-67
2021/01/28 05:04:10;;;;;;;0.30;0.30;;;5.20;99.20;;;;;;4975304;28;20197;-67
2021/01/28 05:06:35;;;;;;;0.30;0.30;;;5.20;99.20;;;;;;4974064;28;20643;-67
2021/01/28 05:09:02;;;;;;;0.30;0.30;;;5.20;99.20;;;;;;4975207;28;20227;-67
2021/01/28 05:11:31;;;;;;;0.30;0.30;;;5.20;99.20;;;;;;4975156;28;20187;-67
2021/01/28 05:14:19;;;;;;;0.30;0.30;;;5.30;99.10;;;;;;4975203;28;20262;-67
2021/01/28 05:16:49;;;;;;;0.60;0.40;;;5.20;99.10;;;;;;4975111;28;20173;-67
2021/01/28 05:19:36;;;;;;;0.57;0.57;;;5.20;99.10;;;;;;4975600;28;20597;-67
2021/01/28 05:22:10;;;;;;;0.68;0.68;;;5.20;99.10;;;;;;4975151;28;20596;-67
2021/01/28 05:24:42;;;;;;;0.70;0.60;;;5.20;99.20;;;;;;4975164;28;20226;-67
2021/01/28 05:27:16;;;;;;;0.40;0.40;;;5.20;99.10;;;;;;4975247;28;20219;-67
2021/01/28 05:29:44;;;;;;;0.60;0.60;;;5.30;99.10;;;;;;4973909;28;20251;-67
2021/01/28 05:32:36;;;;;;;0.70;0.50;;;5.30;99.10;;;;;;4974954;28;20193;-67
2021/01/28 05:35:26;;;;;;;0.70;0.70;;;5.30;99.10;;;;;;4974992;28;20247;-67
2021/01/28 05:38:05;;;;;;;0.80;0.80;;;5.20;99.00;;;;;;4975100;28;20196;-67
2021/01/28 05:40:32;;;;;;;0.70;0.70;;;5.20;99.10;;;;;;4974919;28;20169;-67
2021/01/28 05:42:58;;;;;;;0.80;0.65;;;5.20;99.20;;;;;;4974736;28;20247;-67
2021/01/28 05:45:23;;;;;;;0.60;0.60;;;5.20;99.20;;;;;;4974415;28;20200;-67
2021/01/28 05:47:52;;;;;;;0.60;0.60;;;5.20;99.10;;;;;;4974797;28;20208;-67
2021/01/28 05:50:30;;;;;;;0.63;0.63;;;5.20;99.10;;;;;;4974736;28;20173;-67
2021/01/28 05:53:16;;;;;;;0.80;0.80;;;5.20;99.50;;;;;;4974732;28;20222;-66
2021/01/28 05:55:43;;;;;;;0.60;0.60;;;5.20;99.20;;;;;;4974738;28;20164;-67
2021/01/28 05:58:31;;;;;;;0.70;0.70;;;5.20;99.20;;;;;;4974715;28;20639;-67
2021/01/28 06:01:22;;;;;;;0.88;0.60;;;5.20;99.20;;;;;;4974804;28;20168;-67
2021/01/28 06:04:00;;;;;;;0.60;0.40;;;5.20;99.20;;;;;;4947242;28;20201;-67
2021/01/28 06:06:38;;;;;;;0.50;0.50;;;5.20;99.20;;;;;;4974591;28;20195;-67
2021/01/28 06:09:22;;;;;;;0.70;0.70;;;5.20;99.20;;;;;;4974645;28;20168;-67
2021/01/28 06:11:54;;;;;;;0.50;0.50;;;5.10;99.30;;;;;;4974471;28;20196;-67
2021/01/28 06:14:47;;;;;;;0.40;0.40;;;5.10;99.50;;;;;;4974795;28;20651;-67
2021/01/28 06:17:25;;;;;;;0.50;0.50;;;5.20;99.40;;;;;;4974739;28;20165;-67
2021/01/28 06:20:05;;;;;;;0.50;0.50;;;5.20;99.20;;;;;;4974509;28;20266;-67
2021/01/28 06:22:43;;;;;;;0.30;0.30;;;5.20;99.20;;;;;;4972961;28;20685;-67
2021/01/28 06:25:45;;;;;;;0.40;0.40;;;5.20;99.00;;;;;;4973803;28;20164;-67
2021/01/28 06:28:28;;;;;;;0.40;0.40;;;5.20;99.10;;;;;;4974430;28;20183;-67
2021/01/28 06:31:31;;;;;;;1.85;0.63;;;5.20;99.10;;;;;;4974440;28;20661;-67
2021/01/28 06:34:12;;;;;;;0.30;0.30;;;5.20;99.10;;;;;;4973013;28;20216;-67
2021/01/28 06:36:53;;;;;;;0.63;0.47;;;5.20;99.10;;;;;;4974435;28;20541;-67
2021/01/28 06:39:36;;;;;;;0.40;0.40;;;5.20;99.20;;;;;;4974348;28;20183;-67
2021/01/28 06:42:17;;;;;;;0.80;0.60;;;5.20;99.20;;;;;;4974237;28;20180;-74
2021/01/28 06:44:54;;;;;;;0.73;0.73;;;5.30;99.90;;;;;;4974192;28;20162;-67
2021/01/28 06:48:03;;;;;;;0.85;0.85;;;5.40;99.60;;;;;;4974348;28;20593;-67
2021/01/28 06:51:02;;;;;;;0.73;0.73;;;5.40;98.70;;;;;;4974359;28;20530;-67
2021/01/28 06:53:50;;;;;;;1.02;0.75;;;5.40;98.40;;;;;;4974174;28;20200;-67
2021/01/28 06:56:29;;;;;;;1.10;0.90;;;5.30;98.60;;;;;;4973960;28;20537;-67
2021/01/28 06:59:10;;;;;;;1.98;0.60;;;5.30;98.80;;;;;;4976501;28;20230;-67
2021/01/28 07:02:11;;;;;;;0.40;0.40;;;5.30;98.90;;;;;;4977857;28;20185;-67
2021/01/28 07:04:41;;;;;;;0.30;0.30;;;5.30;98.90;;;;;;4977635;28;20168;-67
2021/01/28 07:07:13;;;;;;;1.02;0.45;;;5.30;98.90;;;;;;4977557;28;20580;-67
2021/01/28 07:10:01;;;;;;;0.98;0.50;;;5.20;98.70;;;;;;4977490;28;20199;-67
2021/01/28 07:12:36;;;;;;;0.65;0.65;;;5.20;99.10;;;;;;4977376;28;20544;-67
2021/01/28 07:15:03;;;;;;;0.50;0.50;;;5.20;99.30;;;;;;4977172;28;20175;-67
2021/01/28 07:17:38;;;;;;;1.15;0.43;;;5.30;99.20;;;;;;4976195;28;20183;-67
2021/01/28 07:20:12;;;;;;;1.95;0.73;;;5.30;99.10;;;;;;4977513;28;20176;-67
2021/01/28 07:22:40;;;;;;;1.08;1.05;;;5.30;99.20;;;;;;4977248;28;20220;-67
2021/01/28 07:25:24;;;;;;;0.60;0.60;;;5.30;99.30;;;;;;4976811;28;20168;-67
2021/01/28 07:28:00;;;;;;;8.70;0.75;;;5.20;99.30;;;;;;4975961;28;20685;-67
2021/01/28 07:30:38;;;;;;;0.93;0.90;;;5.30;99.40;;;;;;4977185;28;20549;-67
2021/01/28 07:33:04;;;;;;;0.40;0.40;;;5.30;99.30;;;;;;4976612;28;20211;-67
2021/01/28 07:35:41;;;;;;;0.98;0.88;;;5.30;99.10;;;;;;4977025;28;20179;-67
2021/01/28 07:38:35;;;;;;;0.40;0.40;;;5.30;99.20;;;;;;4976590;28;20173;-69
2021/01/28 07:41:10;;;;;;;0.30;0.30;;;5.30;99.10;;;;;;4975830;28;20546;-69
2021/01/28 07:43:43;;;;;;;0.57;0.57;;;5.30;99.10;;;;;;4975192;28;20617;-69
2021/01/28 07:46:27;;;;;;;0.95;0.65;;;5.30;99.10;;;;;;4976820;28;20189;-67
2021/01/28 07:49:11;;;;;;;0.82;0.70;;;5.30;99.10;;;;;;4977187;28;20176;-67
2021/01/28 07:51:39;;;;;;;2.15;0.73;;;5.30;99.20;;;;;;4976856;28;20227;-71
2021/01/28 07:54:24;;;;;;;0.75;0.75;;;5.30;99.20;;;;;;4976441;28;20197;-68
2021/01/28 07:56:57;;;;;;;1.75;0.90;;;5.30;99.00;;;;;;4976113;28;20168;-67
2021/01/28 07:59:23;;;;;;;1.25;0.60;;;5.30;99.10;;;;;;4976797;28;20635;-70
2021/01/28 08:02:16;;;;;;;3.17;0.60;;;5.30;99.20;;;;;;4975988;28;20220;-68
2021/01/28 08:04:57;;;;;;;1.48;0.75;;;5.30;99.30;;;;;;4970783;28;20195;-70
2021/01/28 08:07:31;;;;;;;1.10;1.00;;;5.30;99.20;;;;;;4976125;28;20177;-70
2021/01/28 08:10:01;;;;;;;0.40;0.40;;;5.40;99.20;;;;;;4981067;28;20193;-70
2021/01/28 08:13:00;;;;;;;0.65;0.40;;;5.20;98.80;;;;;;4993717;28;20199;-73
2021/01/28 08:15:38;;;;;;;1.17;0.73;;;5.00;99.60;;;;;;4954382;28;20533;-69
2021/01/28 08:18:20;;;;;;;6.53;2.85;;;5.20;99.80;;;;;;4987402;28;20182;-71
2021/01/28 08:20:49;;;;;;;2.25;2.00;;;5.20;99.80;;;;;;4995655;28;20204;-71
2021/01/28 08:23:18;;;;;;;1.60;1.20;;;5.30;99.70;;;;;;4991150;28;20215;-73
2021/01/28 08:26:15;;;;;;;2.00;1.80;;;5.30;99.40;;;;;;4983193;28;20698;-69
2021/01/28 08:28:44;;;;;;;1.92;1.83;;;5.30;99.70;;;;;;4963635;28;20193;-69
2021/01/28 08:31:22;;;;;;;3.72;2.28;;;5.20;99.50;;;;;;4977980;28;20639;-70
2021/01/28 08:33:56;;;;;;;1.25;1.02;;;5.10;99.80;;;;;;4996080;28;20220;-70
2021/01/28 08:36:30;;;;;;;0.77;0.50;;;5.10;99.90;;;;;;4995009;28;20172;-71
2021/01/28 08:39:20;;;;;;;0.82;0.52;;;5.20;99.60;;;;;;4995341;28;20178;-74
2021/01/28 08:42:05;;;;;;;1.58;1.33;;;5.20;99.60;;;;;;4976977;28;20200;-68
2021/01/28 08:44:32;;;;;;;0.90;0.90;;;5.00;99.60;;;;;;4975797;28;20239;-69
2021/01/28 08:47:23;;;;;;;1.85;1.65;;;5.10;99.90;;;;;;4975775;28;20195;-70
2021/01/28 08:50:08;;;;;;;2.20;1.50;;;5.20;99.90;;;;;;4975949;28;20168;-70
2021/01/28 08:52:35;;;;;;;1.95;1.85;;;5.30;99.90;;;;;;4975144;28;20259;-69
2021/01/28 08:55:28;;;;;;;1.90;1.80;;;5.30;99.80;;;;;;4975286;28;20173;-68
2021/01/28 08:58:07;;;;;;;1.00;1.00;;;5.20;99.70;;;;;;4986049;28;20564;-70
2021/01/28 09:00:35;;;;;;;4.32;1.50;;;5.20;99.70;;;;;;4993899;28;20183;-69
2021/01/28 09:03:02;;;;;;;0.60;0.60;;;5.20;99.70;;;;;;4994409;28;20203;-70
2021/01/28 09:05:32;;;;;;;0.70;0.70;;;5.10;99.90;;;;;;4994835;28;20183;-70
2021/01/28 09:08:08;;;;;;;0.70;0.52;;;5.10;99.90;;;;;;4995147;28;20250;-70
2021/01/28 09:10:40;;;;;;;0.40;0.40;;;5.30;99.90;;;;;;4993400;28;20196;-70
2021/01/28 09:13:22;;;;;;;0.50;0.50;;;5.30;99.90;;;;;;4994295;28;20204;-69
2021/01/28 09:16:06;;;;;;;0.77;0.77;;;5.30;99.90;;;;;;4994648;28;20620;-68
2021/01/28 09:18:38;;;;;;;1.15;0.57;;;5.40;99.90;;;;;;4993479;28;20164;-73
2021/01/28 09:21:16;;;;;;;0.50;0.50;;;5.30;99.90;;;;;;4992483;28;20265;-71
2021/01/28 09:24:21;;;;;;;0.73;0.60;;;5.30;99.90;;;;;;4994002;28;20211;-72
2021/01/28 09:27:03;;;;;;;0.40;0.40;;;5.30;99.90;;;;;;4994166;28;20533;-71
2021/01/28 09:29:35;;;;;;;0.50;0.50;;;5.50;99.90;;;;;;4994216;28;20168;-71
2021/01/28 09:32:08;;;;;;;0.60;0.60;;;5.30;99.90;;;;;;4994792;28;20534;-72
2021/01/28 09:34:33;;;;;;;0.77;0.77;;;5.40;99.90;;;;;;4994257;28;20176;-72
2021/01/28 09:37:05;;;;;;;0.60;0.60;;;5.60;99.90;;;;;;4994452;28;20206;-73
2021/01/28 09:39:44;;;;;;;0.75;0.75;;;5.60;99.90;;;;;;4994441;28;20168;-73
2021/01/28 09:42:18;;;;;;;1.02;1.02;;;5.70;99.90;;;;;;4994188;28;20560;-72
2021/01/28 09:44:49;;;;;;;0.95;0.95;;;5.70;99.90;;;;;;4993765;28;20172;-73
2021/01/28 09:47:22;;;;;;;0.90;0.90;;;5.50;99.90;;;;;;4993562;28;20520;-73
2021/01/28 09:49:51;;;;;;;0.77;0.50;;;5.30;99.90;;;;;;4994070;28;20176;-73
2021/01/28 09:52:22;;;;;;;0.40;0.40;;;5.30;99.90;;;;;;4994448;28;20211;-72
2021/01/28 09:54:57;;;;;;;0.80;0.80;;;5.30;99.90;;;;;;4994615;28;20255;-73
2021/01/28 09:57:23;;;;;;;0.55;0.52;;;5.30;99.90;;;;;;4994317;28;20182;-72
2021/01/28 09:59:49;;;;;;;0.40;0.40;;;5.40;99.90;;;;;;4994323;28;20168;-72
2021/01/28 10:02:22;;;;;;;0.80;0.80;;;5.50;99.90;;;;;;4994306;28;20202;-71
2021/01/28 10:04:48;;;;;;;0.60;0.60;;;5.60;99.90;;;;;;4993913;28;20890;-71
2021/01/28 10:07:15;;;;;;;0.63;0.63;;;5.60;99.90;;;;;;4993932;28;20187;-71
2021/01/28 10:09:43;;;;;;;1.15;0.93;;;5.60;99.90;;;;;;4994022;28;20210;-71
2021/01/28 10:12:09;;;;;;;0.50;0.50;;;5.60;99.90;;;;;;4992909;28;20200;-71
2021/01/28 10:14:35;;;;;;;0.50;0.40;;;5.50;99.90;;;;;;4993715;28;20179;-70
2021/01/28 10:17:00;;;;;;;0.60;0.60;;;5.60;99.90;;;;;;4992614;28;20423;-72
2021/01/28 10:19:26;;;;;;;1.47;1.03;;;5.70;99.90;;;;;;4993204;28;20187;-73
2021/01/28 10:21:52;;;;;;;1.00;0.95;;;5.70;99.90;;;;;;4994177;28;20521;-72
2021/01/28 10:24:18;;;;;;;1.07;0.80;;;5.80;99.90;;;;;;4993784;28;20246;-72
2021/01/28 10:26:44;;;;;;;1.00;1.00;;;6.00;99.90;;;;;;4993992;28;20180;-72
2021/01/28 10:29:09;;;;;;;0.67;0.67;;;5.90;99.90;;;;;;4994179;28;20407;-72
2021/01/28 10:31:35;;;;;;;0.97;0.97;;;6.00;99.90;;;;;;4993845;28;20173;-72
2021/01/28 10:34:01;;;;;;;0.83;0.83;;;6.10;99.90;;;;;;4996996;28;20192;-72
2021/01/28 10:36:26;;;;;;;2.00;0.80;;;6.20;99.90;;;;;;4997451;28;20200;-71
2021/01/28 10:38:52;;;;;;;0.40;0.40;;;6.30;99.90;;;;;;4998074;28;20259;-70
2021/01/28 10:41:18;;;;;;;0.50;0.47;;;6.40;99.90;;;;;;4997849;28;20164;-74
2021/01/28 10:43:43;;;;;;;0.70;0.70;;;6.40;99.90;;;;;;4997898;28;20199;-71
2021/01/28 10:46:09;;;;;;;0.73;0.73;;;6.50;99.90;;;;;;4997399;28;20169;-71
2021/01/28 10:48:35;;;;;;;0.53;0.53;;;6.60;99.90;;;;;;4997989;28;20298;-71
2021/01/28 10:51:02;;;;;;;0.67;0.67;;;6.70;99.90;;;;;;4997814;28;20422;-72
2021/01/28 10:53:27;;;;;;;1.20;0.82;;;6.80;99.90;;;;;;4997699;28;20218;-71
2021/01/28 10:55:53;;;;;;;0.87;0.87;;;6.90;99.90;;;;;;4997137;28;20180;-71
2021/01/28 10:58:22;;;;;;;1.10;0.70;;;6.70;99.90;;;;;;4997477;28;20176;-71
2021/01/28 11:00:48;;;;;;;0.98;0.80;;;6.60;99.90;;;;;;4996682;28;20285;-74
2021/01/28 11:03:13;;;;;;;3.80;0.80;;;6.60;99.90;;;;;;4997010;28;20224;-72
2021/01/28 11:05:39;;;;;;;0.53;0.50;;;6.60;99.90;;;;;;4997295;28;20693;-72
2021/01/28 11:08:06;;;;;;;0.60;0.60;;;6.70;99.90;;;;;;4996991;28;20172;-72
2021/01/28 11:10:32;;;;;;;0.65;0.65;;;6.50;99.90;;;;;;4996923;28;20195;-72
2021/01/28 11:12:59;;;;;;;0.50;0.50;;;6.40;99.90;;;;;;4996830;28;20212;-72
2021/01/28 11:15:32;;;;;;;0.80;0.80;;;6.50;99.90;;;;;;4996956;28;20685;-72
2021/01/28 11:17:57;;;;;;;0.60;0.60;;;6.60;99.90;;;;;;4997058;28;20186;-72
2021/01/28 11:20:23;;;;;;;0.70;0.70;;;6.70;99.90;;;;;;4996992;28;20215;-72
2021/01/28 11:22:49;;;;;;;0.50;0.50;;;6.90;99.90;;;;;;4996671;28;20681;-72
2021/01/28 11:25:19;;;;;;;0.60;0.57;;;6.90;99.90;;;;;;4996556;28;20172;-72
2021/01/28 11:27:45;;;;;;;0.55;0.55;;;7.00;99.90;;;;;;4996934;28;20183;-72
2021/01/28 11:30:13;;;;;;;1.13;0.70;;;6.90;99.90;;;;;;4996815;28;20561;-72
2021/01/28 11:32:39;;;;;;;1.15;1.05;;;7.10;99.90;;;;;;4996418;28;20459;-72
2021/01/28 11:35:05;;;;;;;1.38;1.17;;;7.30;99.90;;;;;;4995586;28;20250;-72
2021/01/28 11:37:31;;;;;;;0.70;0.70;;;7.50;99.90;;;;;;4996585;28;20174;-72
2021/01/28 11:39:57;;;;;;;0.60;0.60;;;7.50;99.90;;;;;;4996524;28;20264;-72
2021/01/28 11:42:22;;;;;;;0.70;0.70;;;7.40;99.90;;;;;;4996211;28;20193;-72
2021/01/28 11:44:48;;;;;;;0.70;0.70;;;7.30;99.90;;;;;;4995610;28;20181;-72
2021/01/28 11:47:13;;;;;;;0.50;0.50;;;7.40;99.90;;;;;;4995810;28;20186;-72
2021/01/28 11:49:39;;;;;;;1.70;1.40;;;7.40;99.90;;;;;;4996104;28;20193;-72
2021/01/28 11:52:05;;;;;;;1.70;1.60;;;7.40;99.90;;;;;;4995319;28;20193;-72
2021/01/28 11:54:30;;;;;;;0.80;0.80;;;7.50;99.90;;;;;;4996219;28;20251;-72
2021/01/28 11:56:56;;;;;;;0.70;0.70;;;7.60;99.90;;;;;;4996034;28;20179;-72
2021/01/28 11:59:22;;;;;;;0.60;0.60;;;7.50;99.90;;;;;;4996371;28;20538;-72
2021/01/28 12:01:49;;;;;;;3.20;0.80;;;7.60;99.90;;;;;;4996328;28;20174;-71
2021/01/28 12:04:15;;;;;;;1.80;0.68;;;7.60;99.90;;;;;;4996054;28;20728;-71
2021/01/28 12:06:43;;;;;;;0.50;0.50;;;7.40;99.90;;;;;;4995823;28;20199;-71
2021/01/28 12:09:09;;;;;;;2.50;1.92;;;7.40;99.90;;;;;;4995755;28;20676;-72
2021/01/28 12:11:35;;;;;;;0.60;0.60;;;7.60;99.90;;;;;;4995768;28;20586;-71
2021/01/28 12:14:02;;;;;;;1.53;0.80;;;7.50;99.90;;;;;;4995842;28;20238;-71
2021/01/28 12:16:29;;;;;;;2.83;2.28;;;7.60;99.90;;;;;;4995598;28;20167;-71
2021/01/28 12:18:55;;;;;;;0.68;0.68;;;7.80;99.90;;;;;;4995732;28;20201;-71
2021/01/28 12:21:21;;;;;;;0.40;0.40;;;7.70;99.90;;;;;;4995401;28;20177;-71
2021/01/28 12:23:48;;;;;;;0.67;0.67;;;7.70;99.90;;;;;;4995378;28;20535;-72
2021/01/28 12:26:14;;;;;;;1.63;1.00;;;7.70;99.90;;;;;;4997838;28;20421;-72
2021/01/28 12:28:40;;;;;;;1.08;0.98;;;7.60;99.90;;;;;;4995547;28;20194;-71
2021/01/28 12:31:05;;;;;;;3.20;2.63;;;7.60;99.90;;;;;;4995670;28;20226;-72
2021/01/28 12:33:31;;;;;;;0.40;0.40;;;7.60;99.90;;;;;;4995243;28;20664;-72
2021/01/28 12:35:57;;;;;;;4.80;3.93;;;7.60;99.90;;;;;;4992948;28;20171;-72
2021/01/28 12:38:24;;;;;;;1.27;1.17;;;7.90;99.90;;;;;;4995016;28;20413;-71
2021/01/28 12:40:53;;;;;;;1.52;1.42;;;8.00;99.90;;;;;;4993343;28;20170;-72
2021/01/28 12:43:19;;;;;;;1.40;1.30;;;8.10;99.90;;;;;;4994209;28;20298;-71
2021/01/28 12:45:45;;;;;;;0.60;0.60;;;8.20;99.90;;;;;;4995055;28;20213;-71
2021/01/28 12:48:11;;;;;;;0.50;0.50;;;8.10;99.90;;;;;;4993945;28;20692;-71
2021/01/28 12:50:36;;;;;;;0.80;0.80;;;8.00;99.90;;;;;;4996343;28;20222;-71
2021/01/28 12:53:02;;;;;;;0.93;0.93;;;8.20;99.90;;;;;;4994894;28;20626;-72
2021/01/28 12:55:28;;;;;;;2.90;1.30;;;8.10;99.90;;;;;;4994247;28;20175;-71
2021/01/28 12:57:54;;;;;;;2.25;2.15;;;8.30;99.90;;;;;;4993934;28;20176;-71
2021/01/28 13:00:23;;;;;;;0.50;0.50;;;8.30;99.90;;;;;;4994483;28;20252;-72
2021/01/28 13:02:49;;;;;;;0.60;0.60;;;8.40;99.90;;;;;;4994815;28;20619;-71
2021/01/28 13:05:15;;;;;;;0.70;0.70;;;8.30;99.90;;;;;;4994945;28;20185;-71
2021/01/28 13:07:41;;;;;;;0.80;0.80;;;8.30;99.90;;;;;;4995043;28;20173;-71
2021/01/28 13:10:10;;;;;;;2.17;1.13;;;8.20;99.90;;;;;;4993506;28;20657;-71
2021/01/28 13:12:37;;;;;;;0.50;0.50;;;8.20;99.90;;;;;;4994704;28;20540;-71
2021/01/28 13:15:08;;;;;;;0.63;0.63;;;8.10;99.90;;;;;;4994351;28;20183;-71
2021/01/28 13:17:34;;;;;;;0.70;0.68;;;7.90;99.90;;;;;;4994681;28;20260;-72